sensor_id;sensor_type;location;lat;lon;timestamp;P1;durP1;ratioP1;P2;durP2;ratioP2
47429;SDS011;33181;49.246;7.372;2024-02-14T00:00:11;36.73;;;15.10;;
47429;SDS011;33181;49.246;7.372;2024-02-14T00:02:40;52.00;;;23.70;;
47429;SDS011;33181;49.246;7.372;2024-02-14T00:05:10;28.87;;;13.97;;
47429;SDS011;33181;49.246;7.372;2024-02-14T00:07:37;24.30;;;13.37;;
47429;SDS011;33181;49.246;7.372;2024-02-14T00:10:04;30.40;;;14.27;;
47429;SDS011;33181;49.246;7.372;2024-02-14T00:12:34;26.87;;;13.43;;
47429;SDS011;33181;49.246;7.372;2024-02-14T00:15:04;10.67;;;6.07;;
47429;SDS011;33181;49.246;7.372;2024-02-14T00:17:32;10.80;;;5.67;;
47429;SDS011;33181;49.246;7.372;2024-02-14T00:19:59;9.90;;;5.53;;
47429;SDS011;33181;49.246;7.372;2024-02-14T00:22:25;15.80;;;9.23;;
47429;SDS011;33181;49.246;7.372;2024-02-14T00:24:51;10.77;;;6.43;;
47429;SDS011;33181;49.246;7.372;2024-02-14T00:27:17;10.70;;;5.80;;
47429;SDS011;33181;49.246;7.372;2024-02-14T00:29:43;8.60;;;5.70;;
47429;SDS011;33181;49.246;7.372;2024-02-14T00:32:10;8.23;;;5.00;;
47429;SDS011;33181;49.246;7.372;2024-02-14T00:34:38;8.67;;;4.57;;
47429;SDS011;33181;49.246;7.372;2024-02-14T00:37:03;8.20;;;4.50;;
47429;SDS011;33181;49.246;7.372;2024-02-14T00:39:29;8.43;;;4.93;;
47429;SDS011;33181;49.246;7.372;2024-02-14T00:41:55;8.47;;;5.57;;
47429;SDS011;33181;49.246;7.372;2024-02-14T00:44:21;8.27;;;5.77;;
47429;SDS011;33181;49.246;7.372;2024-02-14T00:46:47;7.97;;;4.97;;
47429;SDS011;33181;49.246;7.372;2024-02-14T00:49:13;10.57;;;7.30;;
47429;SDS011;33181;49.246;7.372;2024-02-14T00:51:40;7.70;;;5.07;;
47429;SDS011;33181;49.246;7.372;2024-02-14T00:54:06;13.80;;;5.63;;
47429;SDS011;33181;49.246;7.372;2024-02-14T00:56:33;6.80;;;3.97;;
47429;SDS011;33181;49.246;7.372;2024-02-14T00:59:00;7.00;;;4.03;;
47429;SDS011;33181;49.246;7.372;2024-02-14T01:01:26;7.27;;;4.17;;
47429;SDS011;33181;49.246;7.372;2024-02-14T01:03:52;6.70;;;4.20;;
47429;SDS011;33181;49.246;7.372;2024-02-14T01:06:18;6.70;;;4.23;;
47429;SDS011;33181;49.246;7.372;2024-02-14T01:08:44;7.47;;;4.03;;
47429;SDS011;33181;49.246;7.372;2024-02-14T01:11:10;6.33;;;4.37;;
47429;SDS011;33181;49.246;7.372;2024-02-14T01:13:36;8.20;;;4.30;;
47429;SDS011;33181;49.246;7.372;2024-02-14T01:16:02;7.27;;;4.60;;
47429;SDS011;33181;49.246;7.372;2024-02-14T01:18:29;19.23;;;4.33;;
47429;SDS011;33181;49.246;7.372;2024-02-14T01:20:56;6.50;;;4.00;;
47429;SDS011;33181;49.246;7.372;2024-02-14T01:23:23;10.53;;;4.33;;
47429;SDS011;33181;49.246;7.372;2024-02-14T01:25:50;8.20;;;4.73;;
47429;SDS011;33181;49.246;7.372;2024-02-14T01:28:15;9.23;;;4.37;;
47429;SDS011;33181;49.246;7.372;2024-02-14T01:30:42;7.47;;;4.10;;
47429;SDS011;33181;49.246;7.372;2024-02-14T01:33:08;7.57;;;4.00;;
47429;SDS011;33181;49.246;7.372;2024-02-14T01:35:34;7.10;;;4.10;;
47429;SDS011;33181;49.246;7.372;2024-02-14T01:37:59;6.63;;;4.23;;
47429;SDS011;33181;49.246;7.372;2024-02-14T01:40:27;9.10;;;4.40;;
47429;SDS011;33181;49.246;7.372;2024-02-14T01:42:54;12.70;;;4.70;;
47429;SDS011;33181;49.246;7.372;2024-02-14T01:45:20;5.93;;;4.67;;
47429;SDS011;33181;49.246;7.372;2024-02-14T01:47:46;8.00;;;4.30;;
47429;SDS011;33181;49.246;7.372;2024-02-14T01:50:15;8.13;;;4.43;;
47429;SDS011;33181;49.246;7.372;2024-02-14T01:52:43;10.00;;;4.60;;
47429;SDS011;33181;49.246;7.372;2024-02-14T01:55:10;6.00;;;4.30;;
47429;SDS011;33181;49.246;7.372;2024-02-14T01:57:37;8.63;;;4.43;;
47429;SDS011;33181;49.246;7.372;2024-02-14T02:00:04;8.47;;;4.80;;
47429;SDS011;33181;49.246;7.372;2024-02-14T02:02:35;6.73;;;4.93;;
47429;SDS011;33181;49.246;7.372;2024-02-14T02:05:02;5.93;;;4.20;;
47429;SDS011;33181;49.246;7.372;2024-02-14T02:07:28;8.47;;;4.50;;
47429;SDS011;33181;49.246;7.372;2024-02-14T02:09:55;5.90;;;3.97;;
47429;SDS011;33181;49.246;7.372;2024-02-14T02:12:20;8.23;;;4.10;;
47429;SDS011;33181;49.246;7.372;2024-02-14T02:14:46;8.10;;;4.20;;
47429;SDS011;33181;49.246;7.372;2024-02-14T02:17:12;11.27;;;4.17;;
47429;SDS011;33181;49.246;7.372;2024-02-14T02:19:38;6.00;;;4.00;;
47429;SDS011;33181;49.246;7.372;2024-02-14T02:22:04;6.20;;;4.00;;
47429;SDS011;33181;49.246;7.372;2024-02-14T02:24:30;6.77;;;4.17;;
47429;SDS011;33181;49.246;7.372;2024-02-14T02:26:55;10.30;;;4.30;;
47429;SDS011;33181;49.246;7.372;2024-02-14T02:29:23;6.17;;;3.80;;
47429;SDS011;33181;49.246;7.372;2024-02-14T02:31:49;7.10;;;4.10;;
47429;SDS011;33181;49.246;7.372;2024-02-14T02:34:15;7.97;;;4.00;;
47429;SDS011;33181;49.246;7.372;2024-02-14T02:36:41;6.77;;;3.93;;
47429;SDS011;33181;49.246;7.372;2024-02-14T02:39:08;8.77;;;4.00;;
47429;SDS011;33181;49.246;7.372;2024-02-14T02:41:34;6.50;;;4.20;;
47429;SDS011;33181;49.246;7.372;2024-02-14T02:44:00;7.50;;;4.17;;
47429;SDS011;33181;49.246;7.372;2024-02-14T02:46:26;6.83;;;4.07;;
47429;SDS011;33181;49.246;7.372;2024-02-14T02:48:52;9.07;;;4.17;;
47429;SDS011;33181;49.246;7.372;2024-02-14T02:51:22;5.70;;;3.90;;
47429;SDS011;33181;49.246;7.372;2024-02-14T02:53:47;7.23;;;3.90;;
47429;SDS011;33181;49.246;7.372;2024-02-14T02:56:13;6.93;;;4.37;;
47429;SDS011;33181;49.246;7.372;2024-02-14T02:58:40;9.10;;;4.30;;
47429;SDS011;33181;49.246;7.372;2024-02-14T03:01:09;6.23;;;3.57;;
47429;SDS011;33181;49.246;7.372;2024-02-14T03:03:36;7.40;;;4.07;;
47429;SDS011;33181;49.246;7.372;2024-02-14T03:06:03;8.87;;;3.83;;
47429;SDS011;33181;49.246;7.372;2024-02-14T03:08:30;5.63;;;3.93;;
47429;SDS011;33181;49.246;7.372;2024-02-14T03:11:02;8.03;;;3.97;;
47429;SDS011;33181;49.246;7.372;2024-02-14T03:13:31;9.13;;;4.27;;
47429;SDS011;33181;49.246;7.372;2024-02-14T03:15:57;7.73;;;4.00;;
47429;SDS011;33181;49.246;7.372;2024-02-14T03:18:24;7.30;;;4.00;;
47429;SDS011;33181;49.246;7.372;2024-02-14T03:20:49;6.83;;;3.90;;
47429;SDS011;33181;49.246;7.372;2024-02-14T03:23:17;7.50;;;4.10;;
47429;SDS011;33181;49.246;7.372;2024-02-14T03:25:43;5.60;;;3.80;;
47429;SDS011;33181;49.246;7.372;2024-02-14T03:28:09;5.87;;;3.83;;
47429;SDS011;33181;49.246;7.372;2024-02-14T03:30:34;8.07;;;4.10;;
47429;SDS011;33181;49.246;7.372;2024-02-14T03:33:01;7.47;;;3.83;;
47429;SDS011;33181;49.246;7.372;2024-02-14T03:35:28;6.33;;;3.90;;
47429;SDS011;33181;49.246;7.372;2024-02-14T03:37:53;8.40;;;4.33;;
47429;SDS011;33181;49.246;7.372;2024-02-14T03:40:19;5.40;;;3.60;;
47429;SDS011;33181;49.246;7.372;2024-02-14T03:42:48;5.97;;;4.03;;
47429;SDS011;33181;49.246;7.372;2024-02-14T03:45:13;6.70;;;3.97;;
47429;SDS011;33181;49.246;7.372;2024-02-14T03:47:40;6.80;;;3.73;;
47429;SDS011;33181;49.246;7.372;2024-02-14T03:50:07;6.97;;;4.20;;
47429;SDS011;33181;49.246;7.372;2024-02-14T03:52:33;5.07;;;3.60;;
47429;SDS011;33181;49.246;7.372;2024-02-14T03:54:59;6.73;;;3.77;;
47429;SDS011;33181;49.246;7.372;2024-02-14T03:57:26;7.97;;;3.80;;
47429;SDS011;33181;49.246;7.372;2024-02-14T03:59:53;5.53;;;4.00;;
47429;SDS011;33181;49.246;7.372;2024-02-14T04:02:21;4.80;;;3.73;;
47429;SDS011;33181;49.246;7.372;2024-02-14T04:04:50;6.97;;;4.07;;
47429;SDS011;33181;49.246;7.372;2024-02-14T04:07:16;7.60;;;3.77;;
47429;SDS011;33181;49.246;7.372;2024-02-14T04:09:43;5.47;;;3.80;;
47429;SDS011;33181;49.246;7.372;2024-02-14T04:12:08;7.73;;;4.00;;
47429;SDS011;33181;49.246;7.372;2024-02-14T04:14:35;7.10;;;3.90;;
47429;SDS011;33181;49.246;7.372;2024-02-14T04:17:02;6.03;;;3.90;;
47429;SDS011;33181;49.246;7.372;2024-02-14T04:19:30;7.73;;;3.60;;
47429;SDS011;33181;49.246;7.372;2024-02-14T04:21:56;8.53;;;4.27;;
47429;SDS011;33181;49.246;7.372;2024-02-14T04:24:21;7.83;;;4.00;;
47429;SDS011;33181;49.246;7.372;2024-02-14T04:26:47;6.67;;;3.57;;
47429;SDS011;33181;49.246;7.372;2024-02-14T04:29:14;7.07;;;3.40;;
47429;SDS011;33181;49.246;7.372;2024-02-14T04:31:40;5.50;;;3.20;;
47429;SDS011;33181;49.246;7.372;2024-02-14T04:34:07;5.90;;;3.50;;
47429;SDS011;33181;49.246;7.372;2024-02-14T04:36:34;9.57;;;3.70;;
47429;SDS011;33181;49.246;7.372;2024-02-14T04:39:00;5.20;;;3.50;;
47429;SDS011;33181;49.246;7.372;2024-02-14T04:41:26;7.90;;;3.97;;
47429;SDS011;33181;49.246;7.372;2024-02-14T04:43:52;8.23;;;3.67;;
47429;SDS011;33181;49.246;7.372;2024-02-14T04:46:18;7.00;;;3.43;;
47429;SDS011;33181;49.246;7.372;2024-02-14T04:48:43;8.13;;;3.97;;
47429;SDS011;33181;49.246;7.372;2024-02-14T04:51:09;8.60;;;3.77;;
47429;SDS011;33181;49.246;7.372;2024-02-14T04:53:37;7.93;;;3.87;;
47429;SDS011;33181;49.246;7.372;2024-02-14T04:56:03;6.87;;;3.60;;
47429;SDS011;33181;49.246;7.372;2024-02-14T04:58:29;7.63;;;4.00;;
47429;SDS011;33181;49.246;7.372;2024-02-14T05:00:55;7.23;;;3.60;;
47429;SDS011;33181;49.246;7.372;2024-02-14T05:03:21;7.20;;;3.70;;
47429;SDS011;33181;49.246;7.372;2024-02-14T05:05:49;7.63;;;3.87;;
47429;SDS011;33181;49.246;7.372;2024-02-14T05:08:15;5.90;;;3.80;;
47429;SDS011;33181;49.246;7.372;2024-02-14T05:10:41;7.00;;;3.80;;
47429;SDS011;33181;49.246;7.372;2024-02-14T05:13:07;6.83;;;4.23;;
47429;SDS011;33181;49.246;7.372;2024-02-14T05:15:32;5.80;;;4.20;;
47429;SDS011;33181;49.246;7.372;2024-02-14T05:18:00;7.00;;;3.83;;
47429;SDS011;33181;49.246;7.372;2024-02-14T05:20:26;12.57;;;4.43;;
47429;SDS011;33181;49.246;7.372;2024-02-14T05:22:51;7.00;;;4.10;;
47429;SDS011;33181;49.246;7.372;2024-02-14T05:25:17;10.00;;;4.70;;
47429;SDS011;33181;49.246;7.372;2024-02-14T05:27:43;6.80;;;4.40;;
47429;SDS011;33181;49.246;7.372;2024-02-14T05:30:11;9.77;;;4.50;;
47429;SDS011;33181;49.246;7.372;2024-02-14T05:32:37;8.10;;;4.70;;
47429;SDS011;33181;49.246;7.372;2024-02-14T05:35:04;5.60;;;3.83;;
47429;SDS011;33181;49.246;7.372;2024-02-14T05:37:34;8.53;;;4.43;;
47429;SDS011;33181;49.246;7.372;2024-02-14T05:40:01;11.47;;;4.97;;
47429;SDS011;33181;49.246;7.372;2024-02-14T05:42:31;10.90;;;4.70;;
47429;SDS011;33181;49.246;7.372;2024-02-14T05:44:57;8.97;;;4.43;;
47429;SDS011;33181;49.246;7.372;2024-02-14T05:47:23;7.70;;;4.67;;
47429;SDS011;33181;49.246;7.372;2024-02-14T05:49:50;7.03;;;4.23;;
47429;SDS011;33181;49.246;7.372;2024-02-14T05:52:16;8.13;;;4.53;;
47429;SDS011;33181;49.246;7.372;2024-02-14T05:54:43;16.20;;;7.03;;
47429;SDS011;33181;49.246;7.372;2024-02-14T05:57:09;9.73;;;5.40;;
47429;SDS011;33181;49.246;7.372;2024-02-14T05:59:34;10.03;;;6.30;;
47429;SDS011;33181;49.246;7.372;2024-02-14T06:02:00;12.70;;;7.17;;
47429;SDS011;33181;49.246;7.372;2024-02-14T06:04:28;11.67;;;5.30;;
47429;SDS011;33181;49.246;7.372;2024-02-14T06:06:53;8.67;;;5.70;;
47429;SDS011;33181;49.246;7.372;2024-02-14T06:09:19;7.00;;;5.37;;
47429;SDS011;33181;49.246;7.372;2024-02-14T06:11:45;10.30;;;5.20;;
47429;SDS011;33181;49.246;7.372;2024-02-14T06:14:10;9.33;;;4.93;;
47429;SDS011;33181;49.246;7.372;2024-02-14T06:16:37;8.70;;;6.10;;
47429;SDS011;33181;49.246;7.372;2024-02-14T06:19:03;9.83;;;5.40;;
47429;SDS011;33181;49.246;7.372;2024-02-14T06:21:30;11.00;;;7.07;;
47429;SDS011;33181;49.246;7.372;2024-02-14T06:23:57;15.13;;;9.00;;
47429;SDS011;33181;49.246;7.372;2024-02-14T06:26:24;10.97;;;5.23;;
47429;SDS011;33181;49.246;7.372;2024-02-14T06:28:50;11.33;;;7.27;;
47429;SDS011;33181;49.246;7.372;2024-02-14T06:31:19;8.37;;;4.80;;
47429;SDS011;33181;49.246;7.372;2024-02-14T06:33:47;16.00;;;7.60;;
47429;SDS011;33181;49.246;7.372;2024-02-14T06:36:13;11.60;;;7.47;;
47429;SDS011;33181;49.246;7.372;2024-02-14T06:38:38;9.57;;;5.20;;
47429;SDS011;33181;49.246;7.372;2024-02-14T06:41:05;6.87;;;4.57;;
47429;SDS011;33181;49.246;7.372;2024-02-14T06:43:31;8.80;;;5.40;;
47429;SDS011;33181;49.246;7.372;2024-02-14T06:45:57;10.83;;;5.00;;
47429;SDS011;33181;49.246;7.372;2024-02-14T06:48:24;8.63;;;4.73;;
47429;SDS011;33181;49.246;7.372;2024-02-14T06:50:50;9.93;;;5.40;;
47429;SDS011;33181;49.246;7.372;2024-02-14T06:53:17;8.80;;;4.70;;
47429;SDS011;33181;49.246;7.372;2024-02-14T06:55:42;8.13;;;4.40;;
47429;SDS011;33181;49.246;7.372;2024-02-14T06:58:08;9.67;;;4.90;;
47429;SDS011;33181;49.246;7.372;2024-02-14T07:00:34;10.30;;;5.20;;
47429;SDS011;33181;49.246;7.372;2024-02-14T07:03:00;9.10;;;4.60;;
47429;SDS011;33181;49.246;7.372;2024-02-14T07:05:26;9.73;;;5.00;;
47429;SDS011;33181;49.246;7.372;2024-02-14T07:07:54;11.30;;;6.27;;
47429;SDS011;33181;49.246;7.372;2024-02-14T07:10:22;12.63;;;6.20;;
47429;SDS011;33181;49.246;7.372;2024-02-14T07:12:48;9.73;;;5.30;;
47429;SDS011;33181;49.246;7.372;2024-02-14T07:15:14;12.30;;;7.93;;
47429;SDS011;33181;49.246;7.372;2024-02-14T07:17:40;10.73;;;5.10;;
47429;SDS011;33181;49.246;7.372;2024-02-14T07:20:05;7.53;;;4.47;;
47429;SDS011;33181;49.246;7.372;2024-02-14T07:22:35;6.70;;;4.50;;
47429;SDS011;33181;49.246;7.372;2024-02-14T07:25:01;9.80;;;5.90;;
47429;SDS011;33181;49.246;7.372;2024-02-14T07:27:29;8.03;;;4.90;;
47429;SDS011;33181;49.246;7.372;2024-02-14T07:29:55;7.87;;;4.90;;
47429;SDS011;33181;49.246;7.372;2024-02-14T07:32:21;11.07;;;5.30;;
47429;SDS011;33181;49.246;7.372;2024-02-14T07:34:47;11.20;;;5.77;;
47429;SDS011;33181;49.246;7.372;2024-02-14T07:37:13;8.73;;;5.20;;
47429;SDS011;33181;49.246;7.372;2024-02-14T07:39:40;12.67;;;5.60;;
47429;SDS011;33181;49.246;7.372;2024-02-14T07:42:06;10.50;;;6.00;;
47429;SDS011;33181;49.246;7.372;2024-02-14T07:44:32;10.80;;;5.70;;
47429;SDS011;33181;49.246;7.372;2024-02-14T07:46:57;13.83;;;7.80;;
47429;SDS011;33181;49.246;7.372;2024-02-14T07:49:23;10.57;;;5.70;;
47429;SDS011;33181;49.246;7.372;2024-02-14T07:51:49;6.73;;;5.27;;
47429;SDS011;33181;49.246;7.372;2024-02-14T07:54:15;9.90;;;5.27;;
47429;SDS011;33181;49.246;7.372;2024-02-14T07:56:40;9.93;;;5.53;;
47429;SDS011;33181;49.246;7.372;2024-02-14T07:59:06;11.80;;;5.70;;
47429;SDS011;33181;49.246;7.372;2024-02-14T08:01:32;11.20;;;6.03;;
47429;SDS011;33181;49.246;7.372;2024-02-14T08:03:58;9.17;;;5.30;;
47429;SDS011;33181;49.246;7.372;2024-02-14T08:06:24;11.10;;;6.00;;
47429;SDS011;33181;49.246;7.372;2024-02-14T08:08:50;10.07;;;5.90;;
47429;SDS011;33181;49.246;7.372;2024-02-14T08:11:19;10.80;;;6.30;;
47429;SDS011;33181;49.246;7.372;2024-02-14T08:13:45;8.83;;;5.20;;
47429;SDS011;33181;49.246;7.372;2024-02-14T08:16:11;8.47;;;5.63;;
47429;SDS011;33181;49.246;7.372;2024-02-14T08:18:37;13.10;;;7.40;;
47429;SDS011;33181;49.246;7.372;2024-02-14T08:21:05;10.27;;;7.10;;
47429;SDS011;33181;49.246;7.372;2024-02-14T08:23:31;12.17;;;5.97;;
47429;SDS011;33181;49.246;7.372;2024-02-14T08:25:59;13.77;;;7.57;;
47429;SDS011;33181;49.246;7.372;2024-02-14T08:28:25;12.60;;;7.10;;
47429;SDS011;33181;49.246;7.372;2024-02-14T08:30:51;11.50;;;6.80;;
47429;SDS011;33181;49.246;7.372;2024-02-14T08:33:17;11.30;;;7.03;;
47429;SDS011;33181;49.246;7.372;2024-02-14T08:35:43;9.90;;;6.50;;
47429;SDS011;33181;49.246;7.372;2024-02-14T08:38:08;17.60;;;6.70;;
47429;SDS011;33181;49.246;7.372;2024-02-14T08:40:34;12.60;;;5.93;;
47429;SDS011;33181;49.246;7.372;2024-02-14T08:43:00;8.83;;;5.80;;
47429;SDS011;33181;49.246;7.372;2024-02-14T08:45:26;12.70;;;6.37;;
47429;SDS011;33181;49.246;7.372;2024-02-14T08:47:54;9.87;;;6.00;;
47429;SDS011;33181;49.246;7.372;2024-02-14T08:50:20;9.87;;;5.90;;
47429;SDS011;33181;49.246;7.372;2024-02-14T08:52:46;12.13;;;5.43;;
47429;SDS011;33181;49.246;7.372;2024-02-14T08:55:12;14.03;;;6.40;;
47429;SDS011;33181;49.246;7.372;2024-02-14T08:57:42;10.50;;;6.03;;
47429;SDS011;33181;49.246;7.372;2024-02-14T09:00:08;15.03;;;7.67;;
47429;SDS011;33181;49.246;7.372;2024-02-14T09:02:35;11.27;;;8.80;;
47429;SDS011;33181;49.246;7.372;2024-02-14T09:05:01;17.77;;;11.73;;
47429;SDS011;33181;49.246;7.372;2024-02-14T09:07:30;16.93;;;12.80;;
47429;SDS011;33181;49.246;7.372;2024-02-14T09:09:59;16.30;;;8.90;;
47429;SDS011;33181;49.246;7.372;2024-02-14T09:12:25;16.47;;;12.73;;
47429;SDS011;33181;49.246;7.372;2024-02-14T09:14:50;17.03;;;10.87;;
47429;SDS011;33181;49.246;7.372;2024-02-14T09:17:16;15.70;;;9.97;;
47429;SDS011;33181;49.246;7.372;2024-02-14T09:19:42;15.90;;;9.90;;
47429;SDS011;33181;49.246;7.372;2024-02-14T09:22:07;23.60;;;13.40;;
47429;SDS011;33181;49.246;7.372;2024-02-14T09:24:33;13.27;;;8.17;;
47429;SDS011;33181;49.246;7.372;2024-02-14T09:26:59;11.83;;;6.77;;
47429;SDS011;33181;49.246;7.372;2024-02-14T09:29:27;8.90;;;6.77;;
47429;SDS011;33181;49.246;7.372;2024-02-14T09:31:54;9.00;;;6.30;;
47429;SDS011;33181;49.246;7.372;2024-02-14T09:34:20;12.93;;;6.97;;
47429;SDS011;33181;49.246;7.372;2024-02-14T09:36:49;11.43;;;6.60;;
47429;SDS011;33181;49.246;7.372;2024-02-14T09:39:17;9.37;;;6.67;;
47429;SDS011;33181;49.246;7.372;2024-02-14T09:41:44;11.57;;;7.03;;
47429;SDS011;33181;49.246;7.372;2024-02-14T09:44:16;12.73;;;7.37;;
47429;SDS011;33181;49.246;7.372;2024-02-14T09:46:42;13.67;;;7.40;;
47429;SDS011;33181;49.246;7.372;2024-02-14T09:49:08;12.33;;;6.70;;
47429;SDS011;33181;49.246;7.372;2024-02-14T09:51:34;12.50;;;7.07;;
47429;SDS011;33181;49.246;7.372;2024-02-14T09:54:02;8.17;;;5.90;;
47429;SDS011;33181;49.246;7.372;2024-02-14T09:56:28;12.03;;;6.43;;
47429;SDS011;33181;49.246;7.372;2024-02-14T09:58:54;9.00;;;6.87;;
47429;SDS011;33181;49.246;7.372;2024-02-14T10:01:21;8.93;;;6.73;;
47429;SDS011;33181;49.246;7.372;2024-02-14T10:03:52;13.20;;;7.53;;
47429;SDS011;33181;49.246;7.372;2024-02-14T10:06:18;11.93;;;8.00;;
47429;SDS011;33181;49.246;7.372;2024-02-14T10:08:48;15.70;;;11.30;;
47429;SDS011;33181;49.246;7.372;2024-02-14T10:11:16;13.50;;;7.87;;
47429;SDS011;33181;49.246;7.372;2024-02-14T10:13:49;11.40;;;7.27;;
47429;SDS011;33181;49.246;7.372;2024-02-14T10:16:19;22.97;;;9.63;;
47429;SDS011;33181;49.246;7.372;2024-02-14T10:18:45;11.03;;;6.50;;
47429;SDS011;33181;49.246;7.372;2024-02-14T10:21:15;11.17;;;7.30;;
47429;SDS011;33181;49.246;7.372;2024-02-14T10:23:45;10.40;;;6.90;;
47429;SDS011;33181;49.246;7.372;2024-02-14T10:26:15;10.57;;;7.10;;
47429;SDS011;33181;49.246;7.372;2024-02-14T10:28:42;9.93;;;7.10;;
47429;SDS011;33181;49.246;7.372;2024-02-14T10:31:09;13.20;;;7.40;;
47429;SDS011;33181;49.246;7.372;2024-02-14T10:33:36;9.10;;;6.60;;
47429;SDS011;33181;49.246;7.372;2024-02-14T10:36:02;14.53;;;7.20;;
47429;SDS011;33181;49.246;7.372;2024-02-14T10:38:32;11.33;;;7.40;;
47429;SDS011;33181;49.246;7.372;2024-02-14T10:40:58;10.87;;;7.30;;
47429;SDS011;33181;49.246;7.372;2024-02-14T10:43:26;12.40;;;7.20;;
47429;SDS011;33181;49.246;7.372;2024-02-14T10:45:55;10.20;;;7.47;;
47429;SDS011;33181;49.246;7.372;2024-02-14T10:48:25;13.60;;;8.00;;
47429;SDS011;33181;49.246;7.372;2024-02-14T10:50:54;10.80;;;7.63;;
47429;SDS011;33181;49.246;7.372;2024-02-14T10:53:22;10.07;;;7.50;;
47429;SDS011;33181;49.246;7.372;2024-02-14T10:55:50;12.17;;;7.53;;
47429;SDS011;33181;49.246;7.372;2024-02-14T10:58:18;12.70;;;8.50;;
47429;SDS011;33181;49.246;7.372;2024-02-14T11:00:45;9.53;;;7.50;;
47429;SDS011;33181;49.246;7.372;2024-02-14T11:03:12;9.83;;;7.70;;
47429;SDS011;33181;49.246;7.372;2024-02-14T11:05:44;12.40;;;7.33;;
47429;SDS011;33181;49.246;7.372;2024-02-14T11:08:14;10.07;;;7.80;;
47429;SDS011;33181;49.246;7.372;2024-02-14T11:10:52;10.70;;;7.57;;
47429;SDS011;33181;49.246;7.372;2024-02-14T11:13:31;16.07;;;7.50;;
47429;SDS011;33181;49.246;7.372;2024-02-14T11:15:57;12.43;;;7.70;;
47429;SDS011;33181;49.246;7.372;2024-02-14T11:18:27;11.67;;;7.80;;
47429;SDS011;33181;49.246;7.372;2024-02-14T11:21:03;10.90;;;7.27;;
47429;SDS011;33181;49.246;7.372;2024-02-14T11:23:30;11.07;;;7.33;;
47429;SDS011;33181;49.246;7.372;2024-02-14T11:26:05;12.80;;;7.50;;
47429;SDS011;33181;49.246;7.372;2024-02-14T11:28:36;9.30;;;7.23;;
47429;SDS011;33181;49.246;7.372;2024-02-14T11:31:06;12.53;;;8.27;;
47429;SDS011;33181;49.246;7.372;2024-02-14T11:33:34;12.73;;;8.43;;
47429;SDS011;33181;49.246;7.372;2024-02-14T11:36:07;11.97;;;9.30;;
47429;SDS011;33181;49.246;7.372;2024-02-14T11:38:39;11.53;;;7.87;;
47429;SDS011;33181;49.246;7.372;2024-02-14T11:41:06;9.03;;;6.87;;
47429;SDS011;33181;49.246;7.372;2024-02-14T11:43:31;12.37;;;8.77;;
47429;SDS011;33181;49.246;7.372;2024-02-14T11:45:57;11.30;;;7.13;;
47429;SDS011;33181;49.246;7.372;2024-02-14T11:48:23;8.20;;;6.67;;
47429;SDS011;33181;49.246;7.372;2024-02-14T11:50:50;7.77;;;5.90;;
47429;SDS011;33181;49.246;7.372;2024-02-14T11:53:18;8.00;;;5.83;;
47429;SDS011;33181;49.246;7.372;2024-02-14T11:55:45;8.67;;;5.90;;
47429;SDS011;33181;49.246;7.372;2024-02-14T11:58:14;7.00;;;5.57;;
47429;SDS011;33181;49.246;7.372;2024-02-14T12:00:45;10.40;;;5.90;;
47429;SDS011;33181;49.246;7.372;2024-02-14T12:03:19;8.30;;;6.00;;
47429;SDS011;33181;49.246;7.372;2024-02-14T12:05:49;9.53;;;5.83;;
47429;SDS011;33181;49.246;7.372;2024-02-14T12:08:16;7.70;;;5.70;;
47429;SDS011;33181;49.246;7.372;2024-02-14T12:10:43;6.77;;;5.10;;
47429;SDS011;33181;49.246;7.372;2024-02-14T12:13:14;6.70;;;5.13;;
47429;SDS011;33181;49.246;7.372;2024-02-14T12:15:45;5.83;;;4.50;;
47429;SDS011;33181;49.246;7.372;2024-02-14T12:18:13;6.97;;;5.10;;
47429;SDS011;33181;49.246;7.372;2024-02-14T12:20:41;6.40;;;4.70;;
47429;SDS011;33181;49.246;7.372;2024-02-14T12:23:15;6.90;;;5.03;;
47429;SDS011;33181;49.246;7.372;2024-02-14T12:25:42;5.70;;;4.13;;
47429;SDS011;33181;49.246;7.372;2024-02-14T12:28:13;5.73;;;4.23;;
47429;SDS011;33181;49.246;7.372;2024-02-14T12:30:46;5.47;;;4.40;;
47429;SDS011;33181;49.246;7.372;2024-02-14T12:33:36;5.10;;;3.90;;
47429;SDS011;33181;49.246;7.372;2024-02-14T12:36:03;5.97;;;4.50;;
47429;SDS011;33181;49.246;7.372;2024-02-14T12:38:32;5.57;;;4.57;;
47429;SDS011;33181;49.246;7.372;2024-02-14T12:40:58;7.13;;;5.27;;
47429;SDS011;33181;49.246;7.372;2024-02-14T12:43:24;8.10;;;5.20;;
47429;SDS011;33181;49.246;7.372;2024-02-14T12:45:50;7.23;;;4.90;;
47429;SDS011;33181;49.246;7.372;2024-02-14T12:48:22;7.57;;;5.40;;
47429;SDS011;33181;49.246;7.372;2024-02-14T12:50:51;9.90;;;6.43;;
47429;SDS011;33181;49.246;7.372;2024-02-14T12:53:17;9.33;;;5.90;;
47429;SDS011;33181;49.246;7.372;2024-02-14T12:55:44;7.07;;;5.57;;
47429;SDS011;33181;49.246;7.372;2024-02-14T12:58:11;7.93;;;5.37;;
47429;SDS011;33181;49.246;7.372;2024-02-14T13:00:37;7.57;;;5.90;;
47429;SDS011;33181;49.246;7.372;2024-02-14T13:03:03;9.60;;;5.63;;
47429;SDS011;33181;49.246;7.372;2024-02-14T13:05:29;8.87;;;5.60;;
47429;SDS011;33181;49.246;7.372;2024-02-14T13:07:55;7.63;;;5.83;;
47429;SDS011;33181;49.246;7.372;2024-02-14T13:10:21;9.17;;;5.60;;
47429;SDS011;33181;49.246;7.372;2024-02-14T13:12:48;9.07;;;5.87;;
47429;SDS011;33181;49.246;7.372;2024-02-14T13:15:14;7.00;;;5.73;;
47429;SDS011;33181;49.246;7.372;2024-02-14T13:17:41;8.30;;;6.10;;
47429;SDS011;33181;49.246;7.372;2024-02-14T13:20:07;7.07;;;5.00;;
47429;SDS011;33181;49.246;7.372;2024-02-14T13:22:33;6.57;;;5.57;;
47429;SDS011;33181;49.246;7.372;2024-02-14T13:24:59;6.13;;;5.07;;
47429;SDS011;33181;49.246;7.372;2024-02-14T13:27:29;7.90;;;5.23;;
47429;SDS011;33181;49.246;7.372;2024-02-14T13:29:55;7.97;;;5.67;;
47429;SDS011;33181;49.246;7.372;2024-02-14T13:32:21;6.77;;;4.80;;
47429;SDS011;33181;49.246;7.372;2024-02-14T13:34:47;7.23;;;5.23;;
47429;SDS011;33181;49.246;7.372;2024-02-14T13:37:13;5.60;;;4.83;;
47429;SDS011;33181;49.246;7.372;2024-02-14T13:39:40;8.83;;;5.23;;
47429;SDS011;33181;49.246;7.372;2024-02-14T13:42:06;6.40;;;5.37;;
47429;SDS011;33181;49.246;7.372;2024-02-14T13:44:33;7.40;;;4.90;;
47429;SDS011;33181;49.246;7.372;2024-02-14T13:46:59;8.93;;;5.40;;
47429;SDS011;33181;49.246;7.372;2024-02-14T13:49:25;7.30;;;5.37;;
47429;SDS011;33181;49.246;7.372;2024-02-14T13:51:51;7.60;;;5.53;;
47429;SDS011;33181;49.246;7.372;2024-02-14T13:54:20;8.80;;;5.47;;
47429;SDS011;33181;49.246;7.372;2024-02-14T13:56:48;7.70;;;5.70;;
47429;SDS011;33181;49.246;7.372;2024-02-14T13:59:15;9.53;;;5.70;;
47429;SDS011;33181;49.246;7.372;2024-02-14T14:01:41;7.53;;;5.40;;
47429;SDS011;33181;49.246;7.372;2024-02-14T14:04:07;6.10;;;4.77;;
47429;SDS011;33181;49.246;7.372;2024-02-14T14:06:33;8.60;;;6.30;;
47429;SDS011;33181;49.246;7.372;2024-02-14T14:08:59;7.27;;;5.70;;
47429;SDS011;33181;49.246;7.372;2024-02-14T14:11:27;9.03;;;5.10;;
47429;SDS011;33181;49.246;7.372;2024-02-14T14:13:53;8.63;;;5.60;;
47429;SDS011;33181;49.246;7.372;2024-02-14T14:16:19;6.90;;;5.57;;
47429;SDS011;33181;49.246;7.372;2024-02-14T14:18:46;6.77;;;5.20;;
47429;SDS011;33181;49.246;7.372;2024-02-14T14:21:14;6.07;;;5.00;;
47429;SDS011;33181;49.246;7.372;2024-02-14T14:23:40;6.43;;;4.67;;
47429;SDS011;33181;49.246;7.372;2024-02-14T14:26:06;7.70;;;4.77;;
47429;SDS011;33181;49.246;7.372;2024-02-14T14:28:32;6.80;;;4.93;;
47429;SDS011;33181;49.246;7.372;2024-02-14T14:30:58;7.10;;;5.17;;
47429;SDS011;33181;49.246;7.372;2024-02-14T14:33:25;16.13;;;5.00;;
47429;SDS011;33181;49.246;7.372;2024-02-14T14:35:51;5.43;;;4.40;;
47429;SDS011;33181;49.246;7.372;2024-02-14T14:38:18;6.90;;;5.00;;
47429;SDS011;33181;49.246;7.372;2024-02-14T14:40:45;6.87;;;4.90;;